Time;durP1;ratioP1;P1;durP2;ratioP2;P2;SDS_P1;SDS_P2;PMS_P1;PMS_P2;Temp;Humidity;BMP_temperature;BMP_pressure;BME280_temperature;BME280_humidity;BME280_pressure;Samples;Min_cycle;Max_cycle;Signal;HPM_P1;HPM_P2
2021/03/06 00:00:14;;;;;;;9.27;4.63;;;-2.50;99.90;;;;;;5001567;28;20018;-62
2021/03/06 00:02:40;;;;;;;8.73;4.57;;;-2.60;99.90;;;;;;5000049;28;20114;-63
2021/03/06 00:05:08;;;;;;;7.90;4.82;;;-2.60;99.90;;;;;;5000496;28;20108;-62
2021/03/06 00:07:34;;;;;;;8.85;4.53;;;-2.60;99.90;;;;;;4997096;28;20033;-66
2021/03/06 00:10:00;;;;;;;9.00;4.40;;;-2.60;99.90;;;;;;5003605;28;20066;-63
2021/03/06 00:12:25;;;;;;;8.05;4.30;;;-2.60;99.90;;;;;;4983774;28;20451;-63
2021/03/06 00:14:51;;;;;;;7.32;3.83;;;-2.60;99.90;;;;;;5001988;28;20030;-62
2021/03/06 00:17:17;;;;;;;9.15;4.60;;;-2.60;99.90;;;;;;5001268;28;20032;-64
2021/03/06 00:19:42;;;;;;;8.38;4.78;;;-2.60;99.90;;;;;;4999483;28;20044;-63
2021/03/06 00:22:08;;;;;;;6.95;4.32;;;-2.60;99.80;;;;;;5001283;28;20061;-63
2021/03/06 00:24:34;;;;;;;6.75;4.50;;;-2.60;99.30;;;;;;5003238;28;20037;-63
2021/03/06 00:27:00;;;;;;;8.32;4.75;;;-2.60;99.20;;;;;;4998115;28;20033;-62
2021/03/06 00:29:26;;;;;;;6.93;4.15;;;-2.70;99.10;;;;;;4998127;28;20034;-63
2021/03/06 00:31:51;;;;;;;5.22;3.50;;;-2.70;99.20;;;;;;4982097;28;20026;-63
2021/03/06 00:34:17;;;;;;;6.90;4.60;;;-2.70;98.90;;;;;;4982843;28;20850;-63
2021/03/06 00:36:43;;;;;;;6.75;4.10;;;-2.70;98.30;;;;;;4996184;28;20043;-63
2021/03/06 00:39:08;;;;;;;6.10;3.92;;;-2.70;98.00;;;;;;4985169;28;20038;-62
2021/03/06 00:41:34;;;;;;;9.70;4.40;;;-2.70;97.30;;;;;;4979568;28;20030;-62
2021/03/06 00:44:00;;;;;;;6.45;3.70;;;-2.80;97.70;;;;;;4980818;28;20035;-63
2021/03/06 00:46:27;;;;;;;6.82;4.00;;;-2.80;96.80;;;;;;4979943;28;20369;-63
2021/03/06 00:48:53;;;;;;;6.93;4.38;;;-2.70;95.80;;;;;;4980354;28;20035;-63
2021/03/06 00:51:19;;;;;;;7.85;3.95;;;-2.70;95.70;;;;;;4981384;28;20110;-66
2021/03/06 00:53:45;;;;;;;7.75;4.45;;;-2.70;95.10;;;;;;4982857;28;20384;-64
2021/03/06 00:56:11;;;;;;;7.63;4.70;;;-2.70;94.60;;;;;;4979917;28;20046;-62
2021/03/06 00:58:37;;;;;;;6.63;4.07;;;-2.80;95.20;;;;;;4981706;28;20035;-62
2021/03/06 01:01:06;;;;;;;7.00;4.40;;;-2.80;97.40;;;;;;4985822;28;20088;-63
2021/03/06 01:03:32;;;;;;;8.98;4.65;;;-2.80;98.10;;;;;;4982106;28;20023;-63
2021/03/06 01:05:57;;;;;;;7.75;4.75;;;-2.80;97.90;;;;;;4979382;28;21565;-62
2021/03/06 01:08:24;;;;;;;8.52;4.38;;;-2.80;97.60;;;;;;4981020;28;20035;-64
2021/03/06 01:10:49;;;;;;;6.10;3.95;;;-2.80;97.90;;;;;;4984999;28;20379;-63
2021/03/06 01:13:15;;;;;;;9.27;4.32;;;-2.80;98.10;;;;;;4980728;28;20027;-63
2021/03/06 01:15:41;;;;;;;6.93;4.65;;;-2.80;98.10;;;;;;4965542;28;20572;-63
2021/03/06 01:18:09;;;;;;;7.47;4.32;;;-2.80;98.30;;;;;;4981243;28;20037;-64
2021/03/06 01:20:35;;;;;;;7.22;4.30;;;-2.90;97.90;;;;;;4980392;28;20398;-64
2021/03/06 01:23:01;;;;;;;7.10;4.13;;;-2.90;97.80;;;;;;4968934;28;20141;-62
2021/03/06 01:25:27;;;;;;;7.38;4.38;;;-2.90;97.80;;;;;;4980309;28;20026;-62
2021/03/06 01:27:53;;;;;;;8.05;4.60;;;-3.00;97.60;;;;;;4978889;28;20027;-62
2021/03/06 01:30:20;;;;;;;8.10;4.65;;;-3.00;97.60;;;;;;4983714;28;20053;-64
2021/03/06 01:32:45;;;;;;;7.90;4.47;;;-3.10;97.90;;;;;;4978853;28;20619;-62
2021/03/06 01:35:12;;;;;;;6.28;4.43;;;-3.10;98.40;;;;;;4976196;28;20133;-63
2021/03/06 01:37:39;;;;;;;11.13;5.50;;;-3.10;98.40;;;;;;4981169;28;20541;-66
2021/03/06 01:40:16;;;;;;;9.60;4.70;;;-3.10;98.40;;;;;;4981883;28;20034;-62
2021/03/06 01:42:42;;;;;;;11.43;5.32;;;-3.10;98.10;;;;;;4980224;28;20433;-62
2021/03/06 01:45:09;;;;;;;9.10;5.03;;;-3.10;98.60;;;;;;4982318;28;20594;-63
2021/03/06 01:47:36;;;;;;;7.72;4.75;;;-3.10;97.40;;;;;;4979152;28;20031;-63
2021/03/06 01:50:07;;;;;;;9.27;5.13;;;-3.10;97.20;;;;;;4982957;28;20128;-62
2021/03/06 01:52:33;;;;;;;8.85;5.25;;;-3.10;97.00;;;;;;4980478;28;20105;-63
2021/03/06 01:54:59;;;;;;;8.73;4.97;;;-3.10;97.10;;;;;;4982013;28;20372;-63
2021/03/06 01:57:25;;;;;;;7.13;4.35;;;-3.10;97.50;;;;;;4999617;28;20026;-62
2021/03/06 01:59:51;;;;;;;10.45;5.45;;;-3.20;97.90;;;;;;4981257;28;20046;-62
2021/03/06 02:02:18;;;;;;;11.95;5.40;;;-3.20;98.40;;;;;;4981888;28;20037;-64
2021/03/06 02:04:44;;;;;;;9.77;5.13;;;-3.30;98.90;;;;;;4998226;28;20038;-63
2021/03/06 02:07:10;;;;;;;8.18;5.40;;;-3.30;98.70;;;;;;5000064;28;20089;-64
2021/03/06 02:09:36;;;;;;;7.93;5.50;;;-3.30;98.40;;;;;;4982781;28;20034;-64
2021/03/06 02:12:23;;;;;;;7.88;4.57;;;-3.30;98.10;;;;;;4977823;28;20019;-63
2021/03/06 02:15:09;;;;;;;9.15;5.30;;;-3.30;96.90;;;;;;4978352;28;20031;-64
2021/03/06 02:17:51;;;;;;;8.05;4.90;;;-3.30;96.40;;;;;;4980505;28;20050;-63
2021/03/06 02:20:47;;;;;;;8.07;5.07;;;-3.30;96.30;;;;;;4982453;28;20034;-63
2021/03/06 02:23:50;;;;;;;9.18;5.20;;;-3.40;96.40;;;;;;4981694;28;20499;-63
2021/03/06 02:26:53;;;;;;;8.18;5.50;;;-3.40;96.80;;;;;;4996829;28;20459;-63
2021/03/06 02:29:39;;;;;;;6.85;4.80;;;-3.40;97.50;;;;;;4982577;28;20042;-66
2021/03/06 02:32:25;;;;;;;8.82;5.10;;;-3.40;97.60;;;;;;4966191;28;20030;-63
2021/03/06 02:35:04;;;;;;;8.65;4.80;;;-3.40;97.70;;;;;;4983986;28;20054;-64
2021/03/06 02:37:32;;;;;;;9.45;5.35;;;-3.40;97.90;;;;;;4999111;28;20104;-63
2021/03/06 02:39:59;;;;;;;9.10;5.32;;;-3.50;98.10;;;;;;4999263;28;20532;-63
2021/03/06 02:42:29;;;;;;;11.45;5.55;;;-3.50;98.10;;;;;;4998705;28;20029;-63
2021/03/06 02:44:56;;;;;;;7.95;5.35;;;-3.60;98.20;;;;;;4980199;28;20042;-64
2021/03/06 02:47:22;;;;;;;7.55;5.38;;;-3.60;98.10;;;;;;4997413;28;20037;-66
2021/03/06 02:49:56;;;;;;;9.95;5.53;;;-3.60;97.70;;;;;;5004122;28;20041;-63
2021/03/06 02:52:21;;;;;;;8.20;5.25;;;-3.70;97.60;;;;;;5001459;28;20026;-66
2021/03/06 02:54:48;;;;;;;8.15;5.20;;;-3.70;97.50;;;;;;4982758;28;20446;-63
2021/03/06 02:58:11;;;;;;;7.53;5.65;;;-3.70;97.70;;;;;;5000703;28;20046;-63
2021/03/06 03:00:47;;;;;;;8.60;5.50;;;-3.70;98.10;;;;;;4942165;29;20071;-64
2021/03/06 03:03:50;;;;;;;8.45;5.38;;;-3.80;98.10;;;;;;4946178;29;20032;-63
2021/03/06 03:06:35;;;;;;;10.75;5.68;;;-3.80;98.90;;;;;;4942392;29;20039;-63
2021/03/06 03:09:08;;;;;;;7.43;5.07;;;-3.80;98.50;;;;;;4945411;29;20039;-64
2021/03/06 03:11:51;;;;;;;9.25;5.78;;;-3.80;98.30;;;;;;4945497;29;20043;-63
2021/03/06 03:14:21;;;;;;;10.50;6.05;;;-3.80;99.00;;;;;;4949252;29;20036;-62
2021/03/06 03:16:52;;;;;;;13.73;6.22;;;-3.90;99.20;;;;;;4927186;29;20509;-62
2021/03/06 03:19:22;;;;;;;9.43;5.82;;;-3.90;99.30;;;;;;4946127;29;20423;-64
2021/03/06 03:21:52;;;;;;;13.27;5.80;;;-3.90;99.30;;;;;;4939729;29;20036;-63
2021/03/06 03:24:20;;;;;;;10.32;5.47;;;-3.90;99.20;;;;;;4946616;29;20520;-62
2021/03/06 03:26:47;;;;;;;9.23;5.35;;;-4.00;99.70;;;;;;4947673;29;20036;-62
2021/03/06 03:29:14;;;;;;;8.68;5.47;;;-4.00;99.20;;;;;;4947739;29;20139;-62
2021/03/06 03:31:44;;;;;;;12.48;6.25;;;-4.00;98.90;;;;;;4986959;28;20092;-62
2021/03/06 03:34:11;;;;;;;8.10;5.03;;;-4.00;98.90;;;;;;4999848;28;20038;-62
2021/03/06 03:36:38;;;;;;;8.75;5.22;;;-4.10;98.80;;;;;;5000804;28;20022;-61
2021/03/06 03:39:05;;;;;;;9.77;6.18;;;-4.20;98.80;;;;;;5001940;28;20054;-62
2021/03/06 03:41:32;;;;;;;10.23;5.68;;;-4.20;99.90;;;;;;4988369;28;20041;-61
2021/03/06 03:44:02;;;;;;;8.48;5.53;;;-4.20;99.90;;;;;;5003793;28;20143;-62
2021/03/06 03:46:30;;;;;;;8.10;5.47;;;-4.20;99.90;;;;;;4996473;28;20034;-62
2021/03/06 03:48:57;;;;;;;9.63;5.53;;;-4.20;99.90;;;;;;4999559;28;20042;-62
2021/03/06 03:51:23;;;;;;;8.77;5.75;;;-4.30;99.90;;;;;;4980974;28;20464;-64
2021/03/06 03:53:49;;;;;;;8.68;5.50;;;-4.30;99.90;;;;;;5000686;28;20088;-62
2021/03/06 03:56:16;;;;;;;7.68;5.03;;;-4.20;99.90;;;;;;5004539;28;20034;-62
2021/03/06 03:58:46;;;;;;;8.57;5.50;;;-4.30;99.90;;;;;;4982591;28;20060;-63
2021/03/06 04:01:11;;;;;;;;;;;-4.30;99.90;;;;;;5002021;28;20037;-62
2021/03/06 04:03:37;;;;;;;8.82;5.05;;;-4.30;99.90;;;;;;5000509;28;19909;-62
2021/03/06 04:06:03;;;;;;;8.57;5.68;;;-4.40;99.90;;;;;;4997249;28;20033;-62
2021/03/06 04:08:28;;;;;;;8.88;5.63;;;-4.40;99.90;;;;;;5002436;28;20034;-65
2021/03/06 04:10:54;;;;;;;9.10;5.55;;;-4.40;99.90;;;;;;5002072;28;20172;-61
2021/03/06 04:13:20;;;;;;;11.13;5.82;;;-4.40;99.90;;;;;;5003056;28;20029;-64
2021/03/06 04:15:45;;;;;;;8.38;5.57;;;-4.40;99.90;;;;;;5002931;28;20530;-62
2021/03/06 04:18:11;;;;;;;8.90;5.65;;;-4.40;99.90;;;;;;4998252;28;20042;-62
2021/03/06 04:20:37;;;;;;;8.48;5.30;;;-4.50;99.90;;;;;;5000989;28;20395;-62
2021/03/06 04:23:03;;;;;;;10.57;5.82;;;-4.50;99.90;;;;;;4995737;28;20034;-62
2021/03/06 04:25:28;;;;;;;11.00;5.47;;;-4.60;99.90;;;;;;4996363;28;20470;-62
2021/03/06 04:27:54;;;;;;;10.05;5.57;;;-4.60;99.90;;;;;;4995319;28;20037;-61
2021/03/06 04:30:21;;;;;;;10.30;5.75;;;-4.60;99.90;;;;;;5000956;28;20034;-65
2021/03/06 04:32:46;;;;;;;9.40;5.93;;;-4.70;99.90;;;;;;4993187;28;20037;-62
2021/03/06 04:35:12;;;;;;;9.55;5.65;;;-4.70;99.90;;;;;;4984872;28;20059;-61
2021/03/06 04:37:39;;;;;;;9.95;5.50;;;-4.70;99.90;;;;;;4969079;28;20033;-61
2021/03/06 04:40:21;;;;;;;12.77;6.10;;;-4.80;99.90;;;;;;4983757;28;20041;-62
2021/03/06 04:42:47;;;;;;;9.80;6.07;;;-4.80;99.90;;;;;;4980048;28;20081;-61
2021/03/06 04:45:13;;;;;;;9.63;5.88;;;-4.70;99.90;;;;;;4980117;28;20030;-62
2021/03/06 04:47:40;;;;;;;8.25;5.30;;;-4.70;99.90;;;;;;4977583;28;20085;-62
2021/03/06 04:50:07;;;;;;;10.10;5.20;;;-4.60;99.90;;;;;;4988924;28;20109;-62
2021/03/06 04:52:32;;;;;;;8.05;5.63;;;-4.60;99.90;;;;;;4971952;28;20034;-62
2021/03/06 04:54:58;;;;;;;8.10;5.63;;;-4.60;99.90;;;;;;4980722;28;20035;-62
2021/03/06 04:57:25;;;;;;;12.60;5.57;;;-4.60;99.90;;;;;;4975608;28;20472;-64
2021/03/06 04:59:51;;;;;;;7.82;5.10;;;-4.60;99.90;;;;;;4984658;28;20077;-62
2021/03/06 05:02:16;;;;;;;8.32;5.45;;;-4.70;99.90;;;;;;4978042;28;20058;-62
2021/03/06 05:04:42;;;;;;;9.55;5.30;;;-4.70;99.90;;;;;;4979826;28;20088;-62
2021/03/06 05:07:08;;;;;;;7.38;4.80;;;-4.70;99.90;;;;;;4980258;28;20038;-62
2021/03/06 05:09:33;;;;;;;9.57;5.30;;;-4.70;99.90;;;;;;4978029;28;20030;-62
2021/03/06 05:11:59;;;;;;;8.77;5.13;;;-4.60;99.90;;;;;;4982173;28;20420;-62
2021/03/06 05:14:24;;;;;;;8.50;4.80;;;-4.70;99.90;;;;;;4978089;28;20087;-62
2021/03/06 05:16:50;;;;;;;10.32;5.22;;;-4.70;99.90;;;;;;4984685;28;20034;-62
2021/03/06 05:19:16;;;;;;;8.15;5.25;;;-4.70;99.90;;;;;;4974460;28;20034;-61
2021/03/06 05:21:41;;;;;;;13.77;5.35;;;-4.80;99.90;;;;;;4972664;28;20046;-62
2021/03/06 05:24:07;;;;;;;9.20;4.97;;;-4.70;99.90;;;;;;4980499;28;20037;-62
2021/03/06 05:26:33;;;;;;;8.30;4.75;;;-4.70;99.90;;;;;;4987890;28;20035;-62
2021/03/06 05:28:59;;;;;;;8.90;5.22;;;-4.70;99.90;;;;;;4978114;28;20141;-62
2021/03/06 05:31:25;;;;;;;10.60;5.45;;;-4.80;99.90;;;;;;4982741;28;20492;-62
2021/03/06 05:33:51;;;;;;;9.93;5.53;;;-4.80;99.90;;;;;;4983231;28;20030;-62
2021/03/06 05:36:16;;;;;;;8.75;5.32;;;-4.90;99.90;;;;;;4991874;28;20054;-61
2021/03/06 05:38:43;;;;;;;15.93;6.10;;;-4.90;99.90;;;;;;4991600;28;20129;-61
2021/03/06 05:41:08;;;;;;;14.02;6.75;;;-4.80;99.90;;;;;;4991908;28;20575;-62
2021/03/06 05:43:34;;;;;;;10.23;5.82;;;-4.80;99.90;;;;;;4973515;28;20117;-62
2021/03/06 05:46:00;;;;;;;10.18;6.25;;;-4.80;99.90;;;;;;5000092;28;20034;-62
2021/03/06 05:48:26;;;;;;;9.45;5.13;;;-4.80;99.90;;;;;;4990421;28;20038;-63
2021/03/06 05:50:53;;;;;;;8.00;5.07;;;-4.80;99.90;;;;;;4992043;28;20080;-63
2021/03/06 05:53:20;;;;;;;7.70;5.22;;;-4.80;99.90;;;;;;4991125;28;20030;-63
2021/03/06 05:55:53;;;;;;;11.57;5.30;;;-4.80;99.90;;;;;;4995191;28;20086;-62
2021/03/06 05:58:21;;;;;;;8.00;5.88;;;-4.70;99.90;;;;;;4994611;28;20030;-63
2021/03/06 06:00:47;;;;;;;10.55;5.53;;;-4.70;99.90;;;;;;4998469;28;20025;-64
2021/03/06 06:03:16;;;;;;;8.70;5.00;;;-4.80;99.90;;;;;;4998744;28;20398;-63
2021/03/06 06:05:41;;;;;;;9.10;5.68;;;-4.80;99.90;;;;;;4995704;28;20053;-63
2021/03/06 06:08:09;;;;;;;9.75;5.03;;;-4.90;99.90;;;;;;5000423;28;20042;-64
2021/03/06 06:10:34;;;;;;;13.07;6.20;;;-4.90;99.90;;;;;;4999102;28;20033;-63
2021/03/06 06:13:00;;;;;;;17.65;7.85;;;-5.00;99.90;;;;;;4997429;28;20030;-63
2021/03/06 06:15:27;;;;;;;17.48;8.02;;;-5.10;99.90;;;;;;5000157;28;20026;-64
2021/03/06 06:17:53;;;;;;;18.17;9.02;;;-5.10;99.90;;;;;;5000472;28;20560;-63
2021/03/06 06:20:22;;;;;;;17.92;8.80;;;-5.10;99.90;;;;;;4996496;28;20102;-63
2021/03/06 06:22:48;;;;;;;19.60;8.95;;;-5.10;99.90;;;;;;4995091;28;20030;-66
2021/03/06 06:25:33;;;;;;;19.15;8.95;;;-5.10;99.90;;;;;;5001529;28;20038;-63
2021/03/06 06:28:03;;;;;;;22.10;9.70;;;-5.10;99.90;;;;;;5000465;28;20038;-63
2021/03/06 06:30:29;;;;;;;20.95;10.10;;;-5.00;99.90;;;;;;4997887;28;20027;-63
2021/03/06 06:32:55;;;;;;;20.30;8.48;;;-4.90;99.90;;;;;;4997299;28;20050;-63
2021/03/06 06:35:21;;;;;;;17.90;8.75;;;-4.80;99.90;;;;;;4998365;28;20051;-63
2021/03/06 06:38:05;;;;;;;18.08;8.55;;;-4.80;99.90;;;;;;4999932;28;20113;-64
2021/03/06 06:40:33;;;;;;;15.10;7.80;;;-4.80;99.90;;;;;;4998597;28;20157;-62
2021/03/06 06:42:59;;;;;;;15.55;8.50;;;-4.80;99.90;;;;;;4996097;28;20029;-63
2021/03/06 06:45:34;;;;;;;21.00;11.30;;;-4.70;99.90;;;;;;4999986;28;20027;-66
2021/03/06 06:48:08;;;;;;;19.23;9.77;;;-4.60;99.90;;;;;;4997200;28;20026;-63
2021/03/06 06:50:34;;;;;;;12.75;6.97;;;-4.50;99.90;;;;;;4999766;28;20030;-62
2021/03/06 06:53:00;;;;;;;13.15;6.45;;;-4.40;99.30;;;;;;4997647;28;20152;-65
2021/03/06 06:55:36;;;;;;;10.25;6.10;;;-4.30;98.30;;;;;;4983718;28;20112;-64
2021/03/06 06:58:02;;;;;;;10.25;6.10;;;-4.20;97.30;;;;;;4998109;28;20033;-63
2021/03/06 07:00:29;;;;;;;11.95;7.35;;;-4.10;96.40;;;;;;4978424;28;20030;-64
2021/03/06 07:03:00;;;;;;;11.18;6.88;;;-4.00;96.30;;;;;;4997611;28;20022;-62
2021/03/06 07:05:37;;;;;;;9.95;6.18;;;-3.80;95.80;;;;;;4997778;28;20057;-63
2021/03/06 07:08:08;;;;;;;13.35;7.40;;;-3.70;94.70;;;;;;4991300;28;20029;-61
2021/03/06 07:10:38;;;;;;;12.90;8.20;;;-3.60;93.90;;;;;;4997911;28;20113;-62
2021/03/06 07:13:07;;;;;;;10.90;6.90;;;-3.50;92.90;;;;;;4998559;28;20042;-62
2021/03/06 07:15:33;;;;;;;10.70;5.95;;;-3.40;92.20;;;;;;4991611;28;20789;-61
2021/03/06 07:18:02;;;;;;;10.88;6.10;;;-3.20;91.60;;;;;;4981376;28;20081;-61
2021/03/06 07:20:32;;;;;;;13.15;6.32;;;-3.10;91.10;;;;;;4999018;28;20088;-61
2021/03/06 07:23:10;;;;;;;9.40;5.73;;;-2.90;90.80;;;;;;5012248;28;20046;-61
2021/03/06 07:25:36;;;;;;;10.27;5.38;;;-2.70;86.90;;;;;;4979953;28;20470;-63
2021/03/06 07:28:02;;;;;;;8.55;5.10;;;-2.50;89.30;;;;;;5000212;28;20030;-61
2021/03/06 07:30:27;;;;;;;8.60;4.93;;;-2.40;86.00;;;;;;4998989;28;20081;-62
2021/03/06 07:32:57;;;;;;;7.72;5.22;;;-2.30;85.90;;;;;;4997967;28;20383;-62
2021/03/06 07:35:24;;;;;;;7.10;4.88;;;-2.20;85.00;;;;;;4991197;28;20098;-65
2021/03/06 07:37:58;;;;;;;7.32;5.22;;;-2.10;84.00;;;;;;4981962;28;20542;-61
2021/03/06 07:40:29;;;;;;;8.90;5.03;;;-2.10;83.50;;;;;;4983233;28;20445;-64
2021/03/06 07:43:07;;;;;;;9.13;4.97;;;-1.90;82.00;;;;;;4985871;28;20029;-61
2021/03/06 07:45:36;;;;;;;7.22;4.43;;;-1.70;80.90;;;;;;4984797;28;20085;-61
2021/03/06 07:48:15;;;;;;;5.10;3.80;;;-1.60;80.50;;;;;;4987577;28;20030;-61
2021/03/06 07:50:53;;;;;;;6.90;4.20;;;-1.40;79.00;;;;;;5000727;28;20121;-61
2021/03/06 07:53:19;;;;;;;9.70;4.30;;;-1.20;77.80;;;;;;4984926;28;20125;-61
2021/03/06 07:55:46;;;;;;;9.85;4.47;;;-1.00;76.00;;;;;;5001067;28;20029;-60
2021/03/06 07:58:22;;;;;;;7.05;4.63;;;-0.90;75.70;;;;;;4970057;28;20030;-61
2021/03/06 08:00:56;;;;;;;6.60;4.28;;;-0.80;75.30;;;;;;4983229;28;20072;-61
2021/03/06 08:03:28;;;;;;;5.55;4.32;;;-0.70;73.70;;;;;;4984213;28;20117;-62
2021/03/06 08:05:54;;;;;;;8.13;4.20;;;-0.50;75.30;;;;;;4985749;28;20033;-60
2021/03/06 08:08:32;;;;;;;6.95;4.18;;;-0.40;73.10;;;;;;4984699;28;20026;-61
2021/03/06 08:11:05;;;;;;;6.50;4.50;;;-0.30;72.90;;;;;;4984471;28;20037;-63
2021/03/06 08:13:54;;;;;;;8.85;4.93;;;-0.20;72.20;;;;;;4985710;28;20089;-61
2021/03/06 08:16:22;;;;;;;7.90;4.03;;;-0.10;72.50;;;;;;4981750;28;20026;-62
2021/03/06 08:18:52;;;;;;;8.95;4.45;;;0.00;71.60;;;;;;4979617;28;20030;-61
2021/03/06 08:21:30;;;;;;;5.53;4.15;;;0.10;72.00;;;;;;4985499;28;20026;-62
2021/03/06 08:26:52;;;;;;;10.10;4.70;;;0.30;70.50;;;;;;4980906;28;20866;-61
2021/03/06 08:29:24;;;;;;;8.15;4.32;;;0.40;70.90;;;;;;4989866;28;20034;-61
2021/03/06 08:32:06;;;;;;;6.85;4.03;;;0.50;69.90;;;;;;4980671;28;20090;-60
2021/03/06 08:34:43;;;;;;;6.85;4.25;;;0.60;69.60;;;;;;4975932;28;20066;-64
2021/03/06 08:37:24;;;;;;;7.70;4.20;;;0.70;69.60;;;;;;4986146;28;20037;-62
2021/03/06 08:40:17;;;;;;;8.00;4.53;;;0.80;69.40;;;;;;4989554;28;20506;-62
2021/03/06 08:42:48;;;;;;;7.47;4.30;;;0.70;69.70;;;;;;4985916;28;20089;-62
2021/03/06 08:45:24;;;;;;;6.72;4.53;;;0.90;69.80;;;;;;4974423;28;20122;-62
2021/03/06 08:48:01;;;;;;;6.65;4.07;;;1.00;69.40;;;;;;4992286;28;20026;-62
2021/03/06 08:50:28;;;;;;;9.77;4.38;;;1.20;68.00;;;;;;4992562;28;20121;-64
2021/03/06 08:53:14;;;;;;;5.35;3.75;;;1.20;69.70;;;;;;4993255;28;20030;-61
2021/03/06 08:55:42;;;;;;;6.28;3.83;;;1.30;67.80;;;;;;4987040;28;20557;-61
2021/03/06 08:58:09;;;;;;;6.38;4.38;;;1.50;66.80;;;;;;5002824;28;20776;-62
2021/03/06 09:00:39;;;;;;;7.50;4.28;;;1.50;66.80;;;;;;4992108;28;20048;-63
2021/03/06 09:03:26;;;;;;;6.65;4.30;;;1.60;66.80;;;;;;4993228;28;20379;-63
2021/03/06 09:05:57;;;;;;;6.65;4.20;;;1.80;66.00;;;;;;4992783;28;20048;-68
2021/03/06 09:08:25;;;;;;;5.45;4.10;;;1.80;65.40;;;;;;4991669;28;20510;-61
2021/03/06 09:10:57;;;;;;;8.35;4.22;;;1.90;65.20;;;;;;4991018;28;20023;-62
2021/03/06 09:13:25;;;;;;;6.45;4.15;;;1.90;65.50;;;;;;4974979;28;20037;-62
2021/03/06 09:16:00;;;;;;;7.68;3.78;;;2.00;64.90;;;;;;4991673;28;20495;-62
2021/03/06 09:18:28;;;;;;;9.00;4.43;;;2.10;67.20;;;;;;4991957;28;20387;-66
2021/03/06 09:20:58;;;;;;;5.60;4.07;;;2.30;66.80;;;;;;4994895;28;20615;-66
2021/03/06 09:23:41;;;;;;;6.78;4.22;;;2.40;64.80;;;;;;4975214;28;20030;-67
2021/03/06 09:26:16;;;;;;;7.50;4.07;;;2.50;64.80;;;;;;4974672;28;20702;-68
2021/03/06 09:28:46;;;;;;;5.72;3.70;;;2.60;65.20;;;;;;4991149;28;20494;-68
2021/03/06 09:31:14;;;;;;;7.18;4.35;;;2.80;64.80;;;;;;4992179;28;20452;-67
2021/03/06 09:33:41;;;;;;;5.88;4.07;;;2.90;62.70;;;;;;4991517;28;20407;-66
2021/03/06 09:36:11;;;;;;;9.02;4.65;;;3.10;60.40;;;;;;4993523;28;20058;-64
2021/03/06 09:38:44;;;;;;;5.75;3.88;;;3.20;59.70;;;;;;4993902;28;20387;-64
2021/03/06 09:41:12;;;;;;;5.50;3.90;;;3.20;61.90;;;;;;4992858;28;20049;-63
2021/03/06 09:43:38;;;;;;;6.10;3.97;;;3.30;60.70;;;;;;4995283;28;20029;-63
2021/03/06 09:46:16;;;;;;;7.78;4.22;;;3.40;60.00;;;;;;4992783;28;20030;-62
2021/03/06 09:49:02;;;;;;;8.10;4.47;;;3.50;60.90;;;;;;4992174;28;20067;-63
2021/03/06 09:51:54;;;;;;;7.63;4.03;;;3.40;59.20;;;;;;4992850;28;20034;-66
2021/03/06 09:54:22;;;;;;;6.50;3.88;;;3.40;60.10;;;;;;4991745;28;20042;-64
2021/03/06 09:56:51;;;;;;;5.75;3.78;;;3.40;56.80;;;;;;4990679;28;20057;-65
2021/03/06 09:59:17;;;;;;;7.90;3.35;;;3.40;58.70;;;;;;4974391;28;20044;-67
2021/03/06 10:01:43;;;;;;;6.35;3.90;;;3.50;56.40;;;;;;4990997;28;20058;-64
2021/03/06 10:04:10;;;;;;;5.43;3.50;;;3.60;53.60;;;;;;4991800;28;20109;-64
2021/03/06 10:06:38;;;;;;;6.35;4.05;;;3.60;53.80;;;;;;4988834;28;20041;-65
2021/03/06 10:09:06;;;;;;;5.57;3.95;;;3.60;55.20;;;;;;4991224;28;20038;-64
2021/03/06 10:11:37;;;;;;;7.22;4.07;;;3.70;55.20;;;;;;4990436;28;20471;-64
2021/03/06 10:14:04;;;;;;;7.60;3.72;;;3.80;57.20;;;;;;4973714;28;20058;-64
2021/03/06 10:16:52;;;;;;;7.38;3.83;;;4.00;58.10;;;;;;4990694;28;20222;-63
2021/03/06 10:19:21;;;;;;;4.97;3.75;;;4.00;56.60;;;;;;4983458;28;20034;-63
2021/03/06 10:22:10;;;;;;;5.43;3.75;;;4.00;56.50;;;;;;4992235;28;20084;-63
2021/03/06 10:25:09;;;;;;;6.22;3.78;;;4.10;57.50;;;;;;4990298;28;20026;-66
2021/03/06 10:27:42;;;;;;;7.00;3.88;;;4.20;53.80;;;;;;4993233;28;20035;-63
2021/03/06 10:30:19;;;;;;;4.90;3.35;;;4.20;53.00;;;;;;4992832;28;20558;-63
2021/03/06 10:32:52;;;;;;;6.43;3.67;;;4.20;53.10;;;;;;4990308;28;20031;-62
2021/03/06 10:35:46;;;;;;;6.35;4.35;;;4.30;53.50;;;;;;4990854;28;20117;-61
2021/03/06 10:38:34;;;;;;;8.95;4.15;;;4.30;55.00;;;;;;4990951;28;20030;-61
2021/03/06 10:41:01;;;;;;;7.00;4.00;;;4.40;54.80;;;;;;4989446;28;20383;-61
2021/03/06 10:43:30;;;;;;;7.32;4.07;;;4.40;54.60;;;;;;4973384;28;20484;-66
2021/03/06 10:46:20;;;;;;;5.50;4.05;;;4.60;54.30;;;;;;4989710;28;20423;-64
2021/03/06 10:49:00;;;;;;;8.02;4.07;;;4.70;54.10;;;;;;4990043;28;20722;-63
2021/03/06 10:51:43;;;;;;;6.57;3.70;;;4.70;52.70;;;;;;4990639;28;20077;-67
2021/03/06 10:54:10;;;;;;;7.95;3.88;;;4.70;52.80;;;;;;4989878;28;20377;-61
2021/03/06 10:56:38;;;;;;;5.60;3.78;;;4.60;54.20;;;;;;4988738;28;20027;-61
2021/03/06 10:59:03;;;;;;;8.00;4.03;;;4.60;52.60;;;;;;4993033;28;20554;-61
2021/03/06 11:01:33;;;;;;;6.05;3.90;;;4.70;53.80;;;;;;4972724;28;20034;-63
2021/03/06 11:03:59;;;;;;;7.85;4.22;;;4.80;52.70;;;;;;5002289;28;20113;-61
2021/03/06 11:06:24;;;;;;;7.45;4.07;;;4.80;53.70;;;;;;4984687;28;20982;-61
2021/03/06 11:09:02;;;;;;;5.65;3.92;;;4.90;53.00;;;;;;4996048;28;20080;-61
2021/03/06 11:11:28;;;;;;;6.45;4.65;;;5.00;52.00;;;;;;4994465;28;20077;-63
2021/03/06 11:13:53;;;;;;;6.40;4.60;;;5.10;51.40;;;;;;4975987;28;20031;-61
2021/03/06 11:16:36;;;;;;;8.73;3.58;;;5.20;50.80;;;;;;4994154;28;20107;-63
2021/03/06 11:19:02;;;;;;;7.55;3.95;;;5.30;50.20;;;;;;4994574;28;20426;-65
2021/03/06 11:21:28;;;;;;;7.07;3.58;;;5.30;49.80;;;;;;4994176;28;20038;-66
2021/03/06 11:23:53;;;;;;;6.38;3.70;;;5.30;50.20;;;;;;4994030;28;20034;-65
2021/03/06 11:26:19;;;;;;;7.68;4.28;;;5.30;50.50;;;;;;4993498;28;20077;-65
2021/03/06 11:28:45;;;;;;;4.32;3.75;;;5.40;49.60;;;;;;4995765;28;20048;-62
2021/03/06 11:31:10;;;;;;;6.97;3.53;;;5.50;50.40;;;;;;4994043;28;20061;-65
2021/03/06 11:33:36;;;;;;;4.65;3.47;;;5.60;51.40;;;;;;4991874;28;20430;-63
2021/03/06 11:36:02;;;;;;;5.80;3.35;;;5.70;48.30;;;;;;4996391;28;20082;-63
2021/03/06 11:38:28;;;;;;;6.28;3.97;;;5.80;49.20;;;;;;4993462;28;20089;-66
2021/03/06 11:40:55;;;;;;;7.47;4.47;;;5.70;48.50;;;;;;4992381;28;20251;-65
2021/03/06 11:43:21;;;;;;;7.50;3.83;;;5.70;47.00;;;;;;4994346;28;20035;-63
2021/03/06 11:45:47;;;;;;;6.88;3.50;;;5.70;48.40;;;;;;4992839;28;20116;-64
2021/03/06 11:48:14;;;;;;;6.57;3.38;;;5.80;47.30;;;;;;4993823;28;20038;-62
2021/03/06 11:50:46;;;;;;;5.30;3.60;;;5.90;47.80;;;;;;4992934;28;20069;-61
2021/03/06 11:53:12;;;;;;;5.72;3.60;;;5.90;48.30;;;;;;4976622;28;20057;-61
2021/03/06 11:55:38;;;;;;;3.75;3.28;;;6.10;46.90;;;;;;4992311;28;20026;-61
2021/03/06 11:58:04;;;;;;;5.22;3.55;;;6.30;44.90;;;;;;4994213;28;20049;-61
2021/03/06 12:00:32;;;;;;;5.43;3.15;;;6.30;45.60;;;;;;4995211;28;20388;-64
2021/03/06 12:02:58;;;;;;;3.30;2.83;;;6.40;43.50;;;;;;4993632;28;20057;-62
2021/03/06 12:05:24;;;;;;;3.97;2.90;;;6.50;43.80;;;;;;4988299;28;20586;-64
2021/03/06 12:07:51;;;;;;;4.65;3.38;;;6.70;45.10;;;;;;4989002;28;20884;-62
2021/03/06 12:10:19;;;;;;;4.22;2.83;;;7.10;42.70;;;;;;4975950;28;20042;-61
2021/03/06 12:12:45;;;;;;;4.00;2.90;;;7.30;41.90;;;;;;4992219;28;20027;-62
2021/03/06 12:15:13;;;;;;;3.90;2.80;;;7.40;42.30;;;;;;4993000;28;20034;-61
2021/03/06 12:17:39;;;;;;;3.80;2.97;;;7.60;41.30;;;;;;4975047;28;20026;-62
2021/03/06 12:20:06;;;;;;;4.65;2.78;;;7.90;41.00;;;;;;4992867;28;20089;-61
2021/03/06 12:22:31;;;;;;;4.35;3.33;;;8.20;42.20;;;;;;4991391;28;20031;-63
2021/03/06 12:24:57;;;;;;;3.22;2.92;;;8.50;39.60;;;;;;4992085;28;20082;-63
2021/03/06 12:27:23;;;;;;;6.00;2.95;;;8.80;39.50;;;;;;4975815;28;20125;-62
2021/03/06 12:29:48;;;;;;;5.32;2.85;;;9.10;37.90;;;;;;4974327;28;20034;-62
2021/03/06 12:32:14;;;;;;;4.35;2.47;;;9.20;37.80;;;;;;4993259;28;20041;-63
2021/03/06 12:34:40;;;;;;;5.18;3.20;;;9.10;39.00;;;;;;4993207;28;20057;-62
2021/03/06 12:37:06;;;;;;;4.78;2.67;;;9.10;38.30;;;;;;4988398;28;20712;-63
2021/03/06 12:39:31;;;;;;;3.80;2.63;;;9.20;37.30;;;;;;4991953;28;20026;-64
2021/03/06 12:41:57;;;;;;;5.18;2.67;;;9.20;37.00;;;;;;4992508;28;20061;-64
2021/03/06 12:44:23;;;;;;;2.97;2.70;;;9.20;36.00;;;;;;4991874;28;20077;-64
2021/03/06 12:46:49;;;;;;;6.78;2.30;;;9.20;36.40;;;;;;4991153;28;20266;-64
2021/03/06 12:49:19;;;;;;;4.63;2.33;;;9.20;36.60;;;;;;4992672;28;20034;-66
2021/03/06 12:51:45;;;;;;;4.82;2.60;;;9.20;36.30;;;;;;4991059;28;20467;-63
2021/03/06 12:54:11;;;;;;;4.28;3.00;;;9.20;36.20;;;;;;4992605;28;20062;-63
2021/03/06 12:56:37;;;;;;;4.85;3.08;;;9.40;37.40;;;;;;4991679;28;21668;-64
2021/03/06 12:59:04;;;;;;;3.38;2.53;;;9.70;36.40;;;;;;4991900;28;20038;-66
2021/03/06 13:01:30;;;;;;;4.32;2.22;;;10.10;34.50;;;;;;4992157;28;20471;-67
2021/03/06 13:03:55;;;;;;;2.97;2.40;;;10.10;34.80;;;;;;4986783;28;20062;-64